Time;durP1;ratioP1;P1;durP2;ratioP2;P2;SDS_P1;SDS_P2;PMS_P1;PMS_P2;Temp;Humidity;BMP_temperature;BMP_pressure;BME280_temperature;BME280_humidity;BME280_pressure;Samples;Min_cycle;Max_cycle;Signal;HPM_P1;HPM_P2
2022/03/07 00:01:14;;;;;;;20.75;13.30;;;-0.60;99.90;;;;;;5116818;28;20376;-78
2022/03/07 00:03:39;;;;;;;25.20;12.40;;;-0.70;99.90;;;;;;5117024;28;20066;-78
2022/03/07 00:06:05;;;;;;;18.63;11.50;;;-0.70;99.90;;;;;;5115541;28;20058;-79
2022/03/07 00:08:31;;;;;;;27.23;13.80;;;-0.70;99.90;;;;;;5115636;28;20031;-78
2022/03/07 00:10:57;;;;;;;22.50;12.82;;;-0.70;99.90;;;;;;5115759;28;20020;-78
2022/03/07 00:13:22;;;;;;;22.10;12.85;;;-0.80;99.90;;;;;;5116770;28;20087;-78
2022/03/07 00:15:49;;;;;;;25.75;12.63;;;-0.80;99.90;;;;;;5116445;28;20136;-78
2022/03/07 00:18:15;;;;;;;22.42;12.23;;;-0.90;99.90;;;;;;5117113;28;20337;-79
2022/03/07 00:20:40;;;;;;;20.85;11.88;;;-1.00;99.90;;;;;;5116460;28;20047;-78
2022/03/07 00:23:07;;;;;;;22.00;11.88;;;-1.00;99.90;;;;;;5098600;28;20047;-79
2022/03/07 00:25:32;;;;;;;22.00;12.02;;;-1.00;99.90;;;;;;5116739;28;20019;-79
2022/03/07 00:27:58;;;;;;;21.10;10.93;;;-1.10;99.90;;;;;;5098596;28;20428;-79
2022/03/07 00:30:24;;;;;;;18.80;11.20;;;-1.10;99.90;;;;;;5116227;28;20012;-79
2022/03/07 00:32:49;;;;;;;19.23;12.52;;;-1.10;99.90;;;;;;5115203;28;20054;-79
2022/03/07 00:35:16;;;;;;;23.50;12.25;;;-1.10;99.90;;;;;;5098150;28;20024;-78
2022/03/07 00:37:41;;;;;;;23.83;12.05;;;-1.10;99.90;;;;;;5116108;28;20080;-79
2022/03/07 00:40:10;;;;;;;21.33;11.98;;;-1.10;99.90;;;;;;5115369;28;20028;-78
2022/03/07 00:42:39;;;;;;;20.75;11.43;;;-1.20;99.90;;;;;;5115858;28;20030;-78
2022/03/07 00:45:10;;;;;;;21.83;11.23;;;-1.30;99.90;;;;;;5114988;28;20428;-78
2022/03/07 00:47:36;;;;;;;20.95;11.20;;;-1.30;99.90;;;;;;5115731;28;20031;-78
2022/03/07 00:50:03;;;;;;;21.75;11.30;;;-1.20;99.90;;;;;;5116086;28;20038;-78
2022/03/07 00:52:29;;;;;;;19.08;10.25;;;-1.30;99.90;;;;;;5114962;28;20436;-78
2022/03/07 00:54:55;;;;;;;16.42;10.77;;;-1.30;99.90;;;;;;5097883;28;20043;-78
2022/03/07 00:57:20;;;;;;;18.52;10.23;;;-1.40;99.90;;;;;;5115964;28;20036;-78
2022/03/07 00:59:46;;;;;;;19.98;10.93;;;-1.40;99.90;;;;;;5115291;28;20024;-78
2022/03/07 01:02:11;;;;;;;19.90;10.98;;;-1.40;99.90;;;;;;5097298;28;20174;-78
2022/03/07 01:04:37;;;;;;;20.65;11.75;;;-1.40;99.90;;;;;;5116045;28;20043;-79
2022/03/07 01:07:04;;;;;;;17.65;11.13;;;-1.50;99.90;;;;;;5097717;28;20472;-78
2022/03/07 01:09:29;;;;;;;22.88;12.43;;;-1.50;99.90;;;;;;5097518;28;20038;-78
2022/03/07 01:11:55;;;;;;;27.25;14.35;;;-1.50;99.90;;;;;;5115210;28;20363;-78
2022/03/07 01:14:21;;;;;;;26.23;13.13;;;-1.50;99.90;;;;;;5114873;28;20452;-78
2022/03/07 01:16:47;;;;;;;21.90;11.80;;;-1.60;99.90;;;;;;5113928;28;20056;-78
2022/03/07 01:19:13;;;;;;;22.17;12.75;;;-1.60;99.90;;;;;;5114408;28;20532;-78
2022/03/07 01:21:39;;;;;;;27.02;14.18;;;-1.60;99.90;;;;;;5114301;28;20379;-78
2022/03/07 01:24:06;;;;;;;21.33;13.68;;;-1.60;99.90;;;;;;5114387;28;20024;-78
2022/03/07 01:26:33;;;;;;;21.15;12.90;;;-1.60;99.90;;;;;;5116115;28;20106;-78
2022/03/07 01:28:59;;;;;;;23.80;12.50;;;-1.70;99.90;;;;;;5115578;28;20032;-79
2022/03/07 01:31:25;;;;;;;25.73;13.73;;;-1.70;99.90;;;;;;5114260;28;20019;-78
2022/03/07 01:33:50;;;;;;;24.77;14.15;;;-1.70;99.90;;;;;;5116016;28;20397;-78
2022/03/07 01:36:16;;;;;;;25.45;13.57;;;-1.80;99.90;;;;;;5097877;28;20415;-78
2022/03/07 01:38:42;;;;;;;20.80;12.00;;;-1.70;99.90;;;;;;5114245;28;20371;-78
2022/03/07 01:41:07;;;;;;;25.27;12.05;;;-1.70;99.90;;;;;;5115120;28;20047;-79
2022/03/07 01:43:33;;;;;;;21.63;11.80;;;-1.90;99.90;;;;;;5112415;28;20172;-78
2022/03/07 01:45:59;;;;;;;24.13;13.65;;;-1.90;99.90;;;;;;5116077;28;20027;-78
2022/03/07 01:48:24;;;;;;;25.35;11.93;;;-1.90;99.90;;;;;;5097990;28;20390;-78
2022/03/07 01:50:50;;;;;;;27.58;12.40;;;-1.90;99.90;;;;;;5115198;28;20430;-78
2022/03/07 01:53:16;;;;;;;24.13;12.98;;;-1.80;99.90;;;;;;5115305;28;20035;-78
2022/03/07 01:55:42;;;;;;;20.92;11.85;;;-1.90;99.90;;;;;;5097353;28;20065;-78
2022/03/07 01:58:08;;;;;;;25.05;11.80;;;-1.90;99.90;;;;;;5115293;28;20440;-78
2022/03/07 02:00:33;;;;;;;26.20;12.95;;;-1.90;99.90;;;;;;5096816;28;20050;-78
2022/03/07 02:03:01;;;;;;;17.83;10.00;;;-2.00;99.90;;;;;;5114870;28;20130;-78
2022/03/07 02:05:27;;;;;;;19.63;11.77;;;-2.10;99.90;;;;;;5113018;28;20051;-78
2022/03/07 02:07:55;;;;;;;21.67;11.25;;;-2.00;99.90;;;;;;5115115;28;20051;-78
2022/03/07 02:10:23;;;;;;;19.50;10.05;;;-2.00;99.90;;;;;;5114710;28;20020;-79
2022/03/07 02:12:48;;;;;;;21.05;10.73;;;-2.00;99.90;;;;;;5113379;28;20024;-78
2022/03/07 02:15:16;;;;;;;19.17;10.25;;;-2.00;99.90;;;;;;5097006;28;20332;-78
2022/03/07 02:17:45;;;;;;;19.92;11.43;;;-2.00;99.90;;;;;;5096085;28;20122;-78
2022/03/07 02:20:12;;;;;;;19.10;11.05;;;-2.10;99.90;;;;;;5113272;28;20070;-79
2022/03/07 02:22:38;;;;;;;17.63;10.30;;;-2.10;99.90;;;;;;5114661;28;20027;-78
2022/03/07 02:25:04;;;;;;;18.05;10.55;;;-2.00;99.90;;;;;;5114868;28;20020;-78
2022/03/07 02:27:32;;;;;;;20.52;10.18;;;-2.00;99.90;;;;;;5114416;28;20046;-78
2022/03/07 02:29:59;;;;;;;16.48;9.18;;;-2.10;99.90;;;;;;5113186;28;20019;-78
2022/03/07 02:32:26;;;;;;;18.33;9.35;;;-2.10;99.90;;;;;;5114412;28;20165;-79
2022/03/07 02:34:52;;;;;;;18.13;9.50;;;-2.20;99.90;;;;;;5114010;28;20027;-78
2022/03/07 02:37:18;;;;;;;16.15;9.27;;;-2.10;99.90;;;;;;5112709;28;20080;-78
2022/03/07 02:39:44;;;;;;;17.48;9.43;;;-2.30;99.90;;;;;;5112733;28;20065;-78
2022/03/07 02:42:10;;;;;;;15.38;8.43;;;-2.20;99.90;;;;;;5112801;28;20020;-78
2022/03/07 02:44:35;;;;;;;16.20;9.00;;;-2.40;99.90;;;;;;5113982;28;20020;-78
2022/03/07 02:47:04;;;;;;;18.65;9.27;;;-2.30;99.90;;;;;;5114331;28;20427;-78
2022/03/07 02:49:29;;;;;;;19.45;9.20;;;-2.20;99.90;;;;;;5112715;28;20016;-78
2022/03/07 02:51:58;;;;;;;16.40;9.25;;;-2.30;99.90;;;;;;5095703;28;20030;-78
2022/03/07 02:54:23;;;;;;;17.58;9.25;;;-2.30;99.90;;;;;;5078850;28;20413;-78
2022/03/07 02:56:49;;;;;;;18.17;9.45;;;-2.30;99.90;;;;;;5112527;28;20031;-78
2022/03/07 02:59:15;;;;;;;21.45;10.23;;;-2.40;99.90;;;;;;5095418;28;20011;-78
2022/03/07 03:01:43;;;;;;;17.95;10.15;;;-2.30;99.90;;;;;;5095373;28;20081;-79
2022/03/07 03:04:09;;;;;;;21.58;10.68;;;-2.30;99.90;;;;;;5113923;28;20052;-78
2022/03/07 03:06:34;;;;;;;17.98;10.75;;;-2.30;99.90;;;;;;5113768;28;20020;-79
2022/03/07 03:09:00;;;;;;;21.38;10.50;;;-2.30;99.90;;;;;;5112703;28;20028;-78
2022/03/07 03:11:26;;;;;;;19.52;11.57;;;-2.40;99.90;;;;;;5112464;28;20031;-78
2022/03/07 03:13:52;;;;;;;23.73;12.65;;;-2.40;99.90;;;;;;5112549;28;20026;-79
2022/03/07 03:16:17;;;;;;;20.20;11.73;;;-2.40;99.90;;;;;;5112145;28;20031;-78
2022/03/07 03:18:43;;;;;;;21.50;10.93;;;-2.40;99.90;;;;;;5112353;28;20069;-79
2022/03/07 03:21:08;;;;;;;21.35;11.63;;;-2.40;99.90;;;;;;5095539;28;20076;-78
2022/03/07 03:23:34;;;;;;;20.88;11.48;;;-2.50;99.90;;;;;;5095242;28;20024;-79
2022/03/07 03:26:00;;;;;;;19.98;11.95;;;-2.50;99.90;;;;;;5113257;28;20020;-78
2022/03/07 03:28:26;;;;;;;19.80;11.52;;;-2.40;99.90;;;;;;5095354;28;20036;-78
2022/03/07 03:30:52;;;;;;;19.58;10.45;;;-2.50;99.90;;;;;;5113799;28;20072;-78
2022/03/07 03:33:18;;;;;;;17.48;10.30;;;-2.50;99.90;;;;;;5112640;28;20016;-78
2022/03/07 03:35:44;;;;;;;19.60;9.27;;;-2.50;99.90;;;;;;5095473;28;20406;-78
2022/03/07 03:38:10;;;;;;;16.63;8.88;;;-2.60;99.90;;;;;;5113203;28;20020;-78
2022/03/07 03:40:36;;;;;;;15.10;8.68;;;-2.70;99.90;;;;;;5096217;28;20023;-78
2022/03/07 03:43:02;;;;;;;17.05;9.02;;;-2.60;99.90;;;;;;5112408;28;20080;-78
2022/03/07 03:45:28;;;;;;;18.67;9.18;;;-2.70;99.90;;;;;;5113600;28;20023;-78
2022/03/07 03:47:54;;;;;;;18.98;9.18;;;-2.70;99.90;;;;;;5113464;28;20023;-78
2022/03/07 03:50:20;;;;;;;16.25;9.25;;;-2.70;99.90;;;;;;5112474;28;20456;-78
2022/03/07 03:52:46;;;;;;;17.25;8.95;;;-2.80;99.90;;;;;;5113002;28;20082;-78
2022/03/07 03:55:12;;;;;;;17.52;8.68;;;-2.80;99.90;;;;;;5112428;28;20113;-78
2022/03/07 03:57:39;;;;;;;16.05;9.45;;;-2.80;99.90;;;;;;5095898;28;20035;-78
2022/03/07 04:00:10;;;;;;;17.02;9.05;;;-2.80;99.90;;;;;;5095317;28;20016;-78
2022/03/07 04:02:36;;;;;;;16.23;9.52;;;-2.80;99.90;;;;;;5114017;28;20417;-79
2022/03/07 04:05:02;;;;;;;17.60;8.80;;;-2.70;99.90;;;;;;5094981;28;20020;-78
2022/03/07 04:07:28;;;;;;;18.13;9.30;;;-2.70;99.90;;;;;;5116900;28;20030;-78
2022/03/07 04:09:53;;;;;;;16.58;8.70;;;-2.70;99.90;;;;;;5098989;28;20094;-79
2022/03/07 04:12:19;;;;;;;15.27;9.27;;;-2.80;99.90;;;;;;5117175;28;20035;-78
2022/03/07 04:14:45;;;;;;;17.58;9.68;;;-2.80;99.90;;;;;;5099197;28;20484;-79
2022/03/07 04:17:10;;;;;;;14.75;8.20;;;-2.80;99.90;;;;;;5098393;28;20059;-78
2022/03/07 04:19:36;;;;;;;20.80;9.82;;;-2.90;99.90;;;;;;5115627;28;20031;-78
2022/03/07 04:22:03;;;;;;;18.55;8.80;;;-2.80;99.90;;;;;;5116681;28;20088;-78
2022/03/07 04:24:30;;;;;;;18.90;9.88;;;-2.80;99.90;;;;;;5116791;28;20508;-78
2022/03/07 04:26:57;;;;;;;16.33;9.68;;;-2.80;99.90;;;;;;5116812;28;20032;-77
2022/03/07 04:29:23;;;;;;;16.63;9.35;;;-2.90;99.90;;;;;;5099090;28;20020;-77
2022/03/07 04:31:48;;;;;;;17.88;9.65;;;-2.90;99.90;;;;;;5099477;28;20042;-77
2022/03/07 04:34:14;;;;;;;17.20;10.07;;;-2.90;99.90;;;;;;5115256;28;20432;-77
2022/03/07 04:36:40;;;;;;;17.50;10.48;;;-2.90;99.90;;;;;;5115358;28;20467;-77
2022/03/07 04:39:08;;;;;;;20.30;11.70;;;-2.80;99.90;;;;;;5116520;28;20098;-77
2022/03/07 04:41:34;;;;;;;28.30;13.45;;;-2.80;99.90;;;;;;5115284;28;20329;-77
2022/03/07 04:44:00;;;;;;;27.13;13.60;;;-2.80;99.90;;;;;;5098183;28;20026;-77
2022/03/07 04:46:26;;;;;;;23.80;12.93;;;-2.70;99.90;;;;;;5116174;28;20032;-78
2022/03/07 04:48:52;;;;;;;23.52;13.38;;;-2.70;99.90;;;;;;5116299;28;20027;-78
2022/03/07 04:51:17;;;;;;;26.05;13.82;;;-2.70;99.90;;;;;;5115530;28;20134;-77
2022/03/07 04:53:43;;;;;;;26.50;14.63;;;-2.70;99.90;;;;;;5115699;28;20047;-77
2022/03/07 04:56:10;;;;;;;24.30;13.93;;;-2.70;99.90;;;;;;5115385;28;20500;-77
2022/03/07 04:58:36;;;;;;;26.75;13.98;;;-2.70;99.90;;;;;;5116006;28;20020;-77
2022/03/07 05:01:02;;;;;;;24.08;13.55;;;-2.70;99.90;;;;;;5115859;28;20497;-77
2022/03/07 05:03:28;;;;;;;23.10;13.23;;;-2.70;99.90;;;;;;5115820;28;20039;-78
2022/03/07 05:05:53;;;;;;;23.58;13.23;;;-2.60;99.90;;;;;;5097611;28;20026;-77
2022/03/07 05:08:19;;;;;;;25.15;14.02;;;-2.60;99.90;;;;;;5115578;28;20145;-78
2022/03/07 05:10:45;;;;;;;24.98;14.00;;;-2.50;99.90;;;;;;5114549;28;20119;-77
2022/03/07 05:13:11;;;;;;;24.92;13.75;;;-2.30;99.90;;;;;;5115622;28;20340;-78
2022/03/07 05:15:37;;;;;;;27.38;14.48;;;-2.30;99.90;;;;;;5097371;28;20027;-78
2022/03/07 05:18:04;;;;;;;28.90;15.57;;;-2.30;99.90;;;;;;5115037;28;20031;-78
2022/03/07 05:20:29;;;;;;;32.10;14.80;;;-2.30;99.90;;;;;;5114265;28;20072;-78
2022/03/07 05:22:55;;;;;;;25.83;14.07;;;-2.40;99.90;;;;;;5114560;28;20435;-79
2022/03/07 05:25:21;;;;;;;30.27;16.20;;;-2.40;99.90;;;;;;5114656;28;20027;-78
2022/03/07 05:27:48;;;;;;;25.85;13.82;;;-2.30;99.90;;;;;;5115747;28;20030;-79
2022/03/07 05:30:16;;;;;;;22.30;12.85;;;-2.30;99.90;;;;;;5115431;28;20111;-78
2022/03/07 05:32:50;;;;;;;22.23;13.18;;;-2.50;99.90;;;;;;5115684;28;20042;-78
2022/03/07 05:35:16;;;;;;;28.23;15.05;;;-2.60;99.90;;;;;;5116019;28;20098;-79
2022/03/07 05:37:42;;;;;;;25.08;14.32;;;-2.60;99.90;;;;;;5115446;28;20123;-79
2022/03/07 05:40:09;;;;;;;23.52;13.82;;;-2.50;99.90;;;;;;5115366;28;20026;-79
2022/03/07 05:42:36;;;;;;;25.80;14.30;;;-2.50;99.90;;;;;;5115055;28;20062;-77
2022/03/07 05:45:03;;;;;;;26.30;13.75;;;-2.40;99.90;;;;;;5097245;28;20032;-79
2022/03/07 05:47:29;;;;;;;24.42;13.10;;;-2.40;99.90;;;;;;5114913;28;20061;-79
2022/03/07 05:49:54;;;;;;;24.90;13.50;;;-2.30;99.90;;;;;;5096716;28;20092;-80
2022/03/07 05:52:20;;;;;;;31.05;15.73;;;-2.30;99.90;;;;;;5114255;28;20051;-79
2022/03/07 05:54:46;;;;;;;27.60;15.65;;;-2.20;99.90;;;;;;5113736;28;20058;-79
2022/03/07 05:57:11;;;;;;;28.65;15.30;;;-2.00;99.90;;;;;;5115226;28;20383;-79
2022/03/07 05:59:37;;;;;;;30.73;14.35;;;-2.00;99.90;;;;;;5114497;28;20027;-79
2022/03/07 06:02:03;;;;;;;23.77;13.32;;;-1.90;99.90;;;;;;5113075;28;20452;-80
2022/03/07 06:04:29;;;;;;;26.10;13.90;;;-1.80;99.90;;;;;;5114825;28;20070;-80
2022/03/07 06:06:54;;;;;;;23.95;13.13;;;-1.80;99.90;;;;;;5113603;28;20031;-78
2022/03/07 06:09:20;;;;;;;22.75;13.20;;;-1.80;99.90;;;;;;5113499;28;20035;-78
2022/03/07 06:11:47;;;;;;;30.65;14.68;;;-1.70;99.90;;;;;;5114049;28;20031;-78
2022/03/07 06:14:12;;;;;;;27.88;14.80;;;-1.70;99.90;;;;;;5113164;28;20035;-78
2022/03/07 06:16:38;;;;;;;25.45;13.20;;;-1.60;99.90;;;;;;5112905;28;20043;-79
2022/03/07 06:19:04;;;;;;;27.65;14.57;;;-1.60;99.90;;;;;;5113240;28;20028;-78
2022/03/07 06:21:30;;;;;;;27.67;15.00;;;-1.60;99.90;;;;;;5114405;28;20111;-79
2022/03/07 06:23:56;;;;;;;25.33;14.02;;;-1.50;99.90;;;;;;5096376;28;20424;-78
2022/03/07 06:26:23;;;;;;;28.45;15.05;;;-1.50;99.90;;;;;;5113045;28;20024;-78
2022/03/07 06:28:48;;;;;;;28.42;14.40;;;-1.40;99.90;;;;;;5114227;28;20378;-79
2022/03/07 06:31:14;;;;;;;24.38;13.60;;;-1.40;99.90;;;;;;5112667;28;20027;-80
2022/03/07 06:33:40;;;;;;;24.20;13.57;;;-1.30;99.90;;;;;;5113235;28;20467;-79
2022/03/07 06:36:06;;;;;;;25.08;12.82;;;-1.30;99.90;;;;;;5114144;28;20042;-79
2022/03/07 06:38:32;;;;;;;25.23;14.38;;;-1.30;99.90;;;;;;5114673;27;20045;-80
2022/03/07 06:40:58;;;;;;;27.65;15.35;;;-1.20;99.90;;;;;;5113341;28;20027;-80
2022/03/07 06:43:24;;;;;;;30.75;16.10;;;-1.10;99.90;;;;;;5112938;28;20380;-81
2022/03/07 06:45:49;;;;;;;25.85;14.18;;;-1.00;99.90;;;;;;5114074;28;20376;-79
2022/03/07 06:48:16;;;;;;;30.38;17.13;;;-0.90;99.90;;;;;;5113090;28;20119;-81
2022/03/07 06:50:41;;;;;;;29.63;16.98;;;-0.80;99.90;;;;;;5114325;28;20380;-79
2022/03/07 06:53:07;;;;;;;39.22;16.67;;;-0.70;99.90;;;;;;5113687;28;20020;-79
2022/03/07 06:55:32;;;;;;;29.88;15.63;;;-0.70;99.90;;;;;;5114443;28;20447;-80
2022/03/07 06:57:59;;;;;;;30.40;15.18;;;-0.60;99.90;;;;;;5114052;28;20360;-80
2022/03/07 07:00:24;;;;;;;26.95;14.48;;;-0.50;99.90;;;;;;5113231;28;20035;-78
2022/03/07 07:02:50;;;;;;;33.13;15.38;;;-0.40;99.90;;;;;;5114045;28;20506;-78
2022/03/07 07:05:16;;;;;;;27.00;15.13;;;-0.30;99.90;;;;;;5113746;28;20023;-80
2022/03/07 07:07:43;;;;;;;29.48;16.02;;;-0.30;99.90;;;;;;5113819;28;20023;-80
2022/03/07 07:10:09;;;;;;;27.55;14.93;;;-0.20;99.90;;;;;;5114162;28;20122;-79
2022/03/07 07:12:35;;;;;;;31.08;16.10;;;-0.20;99.90;;;;;;5112748;28;20136;-79
2022/03/07 07:15:02;;;;;;;28.65;15.27;;;-0.20;99.90;;;;;;5113824;28;20027;-79
2022/03/07 07:17:27;;;;;;;24.85;14.07;;;-0.20;99.90;;;;;;5114474;28;20103;-79
2022/03/07 07:19:53;;;;;;;25.63;14.10;;;-0.20;99.90;;;;;;5114372;28;20031;-77
2022/03/07 07:22:19;;;;;;;28.20;14.68;;;-0.20;99.90;;;;;;5113604;28;20027;-79
2022/03/07 07:24:44;;;;;;;26.73;15.85;;;-0.20;99.90;;;;;;5114378;28;20420;-79
2022/03/07 07:27:10;;;;;;;31.55;15.30;;;-0.10;99.90;;;;;;5112987;28;20031;-79
2022/03/07 07:29:36;;;;;;;30.60;15.13;;;-0.10;99.90;;;;;;5112542;28;20043;-80
2022/03/07 07:32:02;;;;;;;28.48;14.95;;;0.00;99.90;;;;;;5112653;28;20499;-80
2022/03/07 07:34:28;;;;;;;25.30;13.98;;;0.10;99.90;;;;;;5112229;28;20097;-80
2022/03/07 07:36:54;;;;;;;29.73;16.10;;;0.10;99.90;;;;;;5112303;28;20032;-80
2022/03/07 07:39:19;;;;;;;26.85;15.68;;;0.20;99.90;;;;;;5113681;28;20102;-80
2022/03/07 07:41:45;;;;;;;28.27;16.00;;;0.30;99.90;;;;;;5115626;28;20080;-80
2022/03/07 07:44:10;;;;;;;29.08;15.07;;;0.30;99.90;;;;;;5116708;28;20059;-79
2022/03/07 07:46:36;;;;;;;28.08;16.38;;;0.40;99.90;;;;;;5116415;28;20027;-80
2022/03/07 07:49:03;;;;;;;28.33;15.15;;;0.50;99.90;;;;;;5117604;28;20099;-79
2022/03/07 07:51:28;;;;;;;34.00;16.50;;;0.50;99.90;;;;;;5117428;28;20421;-80
2022/03/07 07:53:54;;;;;;;30.63;14.68;;;0.60;99.90;;;;;;5099230;28;20024;-80
2022/03/07 07:56:19;;;;;;;29.48;15.63;;;0.80;99.90;;;;;;5117304;28;20035;-80
2022/03/07 07:58:45;;;;;;;29.27;14.90;;;0.80;99.90;;;;;;5099621;28;20352;-80
2022/03/07 08:01:11;;;;;;;25.33;14.05;;;0.90;99.90;;;;;;5115800;28;20058;-80
2022/03/07 08:03:36;;;;;;;26.50;14.73;;;1.00;99.90;;;;;;5116045;28;20031;-79
2022/03/07 08:06:02;;;;;;;28.10;15.20;;;1.10;99.90;;;;;;5116792;28;20418;-82
2022/03/07 08:08:28;;;;;;;27.83;14.55;;;1.20;99.90;;;;;;5116396;28;20028;-83
2022/03/07 08:10:53;;;;;;;21.85;13.73;;;1.40;99.90;;;;;;5115622;28;20084;-81
2022/03/07 08:13:19;;;;;;;22.05;13.48;;;1.40;99.90;;;;;;5117007;28;20034;-82
2022/03/07 08:15:45;;;;;;;22.23;13.23;;;1.50;99.90;;;;;;5116988;28;20027;-81
2022/03/07 08:18:11;;;;;;;22.23;13.35;;;1.60;99.90;;;;;;5115788;28;20040;-82
2022/03/07 08:20:37;;;;;;;24.15;11.85;;;1.70;99.90;;;;;;5115822;28;20374;-80
2022/03/07 08:23:04;;;;;;;25.42;12.25;;;1.80;99.90;;;;;;5116455;28;20091;-79
2022/03/07 08:25:32;;;;;;;21.23;12.45;;;1.90;99.90;;;;;;5116882;28;20106;-79
2022/03/07 08:27:58;;;;;;;20.50;12.05;;;1.90;99.90;;;;;;5116658;28;20023;-81
2022/03/07 08:30:25;;;;;;;18.73;12.20;;;2.00;99.90;;;;;;5116120;28;20023;-81
2022/03/07 08:32:51;;;;;;;19.30;11.55;;;2.10;99.90;;;;;;5115077;28;20024;-82
2022/03/07 08:35:17;;;;;;;22.35;11.95;;;2.40;99.90;;;;;;5115935;28;20180;-81
2022/03/07 08:37:45;;;;;;;18.98;10.68;;;2.70;99.90;;;;;;5115223;28;20032;-80
2022/03/07 08:40:13;;;;;;;19.58;10.73;;;3.10;99.90;;;;;;5116563;28;20023;-80
2022/03/07 08:42:39;;;;;;;22.25;11.20;;;3.40;99.90;;;;;;5116748;27;20379;-80
2022/03/07 08:45:06;;;;;;;20.30;10.65;;;3.70;99.90;;;;;;5116461;28;20538;-80
2022/03/07 08:47:33;;;;;;;21.95;11.50;;;3.90;99.90;;;;;;5114981;28;20383;-80
2022/03/07 08:49:59;;;;;;;18.77;10.70;;;4.20;99.90;;;;;;5115858;28;20046;-81
2022/03/07 08:52:24;;;;;;;16.88;9.38;;;4.40;99.90;;;;;;5116341;28;20428;-80
2022/03/07 08:54:50;;;;;;;14.80;8.68;;;4.70;99.90;;;;;;5116002;28;20034;-82
2022/03/07 08:57:16;;;;;;;17.75;10.25;;;4.80;99.90;;;;;;5116734;28;20092;-85
2022/03/07 08:59:42;;;;;;;17.90;9.30;;;5.90;99.90;;;;;;5116094;28;20368;-81
2022/03/07 09:02:09;;;;;;;13.07;6.53;;;7.00;99.90;;;;;;5114313;28;20051;-80
2022/03/07 09:04:36;;;;;;;15.52;7.25;;;8.30;99.90;;;;;;5114673;28;20076;-81
2022/03/07 09:07:02;;;;;;;11.82;6.70;;;8.70;99.90;;;;;;5097965;28;20042;-81
2022/03/07 09:09:28;;;;;;;10.50;6.32;;;9.20;99.90;;;;;;5097861;28;20034;-82
2022/03/07 09:11:54;;;;;;;13.98;7.43;;;9.80;99.90;;;;;;5115961;28;20426;-82
2022/03/07 09:14:20;;;;;;;15.20;8.15;;;10.30;99.90;;;;;;5114664;28;20099;-82
2022/03/07 09:16:46;;;;;;;15.38;8.30;;;11.30;99.90;;;;;;5114810;28;20059;-81
2022/03/07 09:19:12;;;;;;;12.63;7.68;;;11.90;99.90;;;;;;5115472;28;20026;-80
2022/03/07 09:21:38;;;;;;;15.32;8.05;;;12.90;89.10;;;;;;5116410;28;20376;-83
2022/03/07 09:24:04;;;;;;;12.07;7.55;;;12.80;78.20;;;;;;5116081;28;20023;-83
2022/03/07 09:26:29;;;;;;;12.52;7.15;;;12.90;77.10;;;;;;5114623;28;20140;-82
2022/03/07 09:28:55;;;;;;;12.50;7.20;;;13.00;70.40;;;;;;5097751;28;20466;-82
2022/03/07 09:31:21;;;;;;;12.38;7.10;;;12.90;84.20;;;;;;5097847;28;20475;-82
2022/03/07 09:33:46;;;;;;;11.23;6.15;;;11.80;91.50;;;;;;5114782;28;20524;-81
2022/03/07 09:36:13;;;;;;;13.88;5.95;;;11.30;99.90;;;;;;5116499;28;20026;-82
2022/03/07 09:38:38;;;;;;;12.38;6.05;;;10.80;99.90;;;;;;5099151;28;20028;-81
2022/03/07 09:41:05;;;;;;;12.65;5.93;;;10.10;99.90;;;;;;5117981;27;20023;-82
2022/03/07 09:43:32;;;;;;;9.13;5.05;;;9.80;99.90;;;;;;5116388;28;20111;-81
2022/03/07 09:45:57;;;;;;;11.18;6.43;;;9.30;99.90;;;;;;5116736;28;20446;-82
2022/03/07 09:48:25;;;;;;;12.98;6.07;;;9.00;99.90;;;;;;5115771;28;20016;-82
2022/03/07 09:50:52;;;;;;;12.48;6.53;;;8.80;99.90;;;;;;5114114;28;20050;-82
2022/03/07 09:53:18;;;;;;;8.85;5.88;;;8.70;99.90;;;;;;5114943;28;20039;-82
2022/03/07 09:55:45;;;;;;;11.07;6.32;;;8.90;99.90;;;;;;5115309;28;20019;-82
2022/03/07 09:58:12;;;;;;;13.38;6.20;;;9.20;99.90;;;;;;5115189;28;20468;-81
2022/03/07 10:00:41;;;;;;;14.50;6.50;;;9.80;99.90;;;;;;5114918;28;20019;-81
2022/03/07 10:03:09;;;;;;;12.07;5.97;;;10.90;98.70;;;;;;5112751;28;20055;-82
2022/03/07 10:05:43;;;;;;;10.20;5.68;;;12.10;90.80;;;;;;5114879;28;20019;-83
2022/03/07 10:08:10;;;;;;;12.10;5.57;;;12.90;70.20;;;;;;5113731;28;20023;-83
2022/03/07 10:10:40;;;;;;;8.98;4.18;;;14.10;63.50;;;;;;5114053;28;20411;-83
2022/03/07 10:13:12;;;;;;;10.52;4.80;;;14.50;56.80;;;;;;5115035;28;20054;-81
2022/03/07 10:15:39;;;;;;;11.20;4.38;;;15.20;55.50;;;;;;5115494;28;20450;-82
2022/03/07 10:18:09;;;;;;;9.57;4.43;;;16.00;53.70;;;;;;5113542;28;20139;-82
2022/03/07 10:20:35;;;;;;;9.95;4.88;;;15.70;51.00;;;;;;5115366;28;20026;-83
2022/03/07 10:23:01;;;;;;;11.70;4.88;;;16.10;53.80;;;;;;5114326;28;20012;-83
2022/03/07 10:25:29;;;;;;;11.23;4.70;;;15.90;51.00;;;;;;5115235;28;20046;-82
2022/03/07 10:27:57;;;;;;;12.43;5.22;;;16.40;51.70;;;;;;5113535;28;20050;-82
2022/03/07 10:30:28;;;;;;;10.43;4.80;;;14.70;49.20;;;;;;5096576;28;20020;-83
2022/03/07 10:33:06;;;;;;;10.77;4.70;;;14.40;53.80;;;;;;5114208;28;20478;-81
2022/03/07 10:35:34;;;;;;;15.07;5.10;;;14.10;57.00;;;;;;5115332;28;20149;-82
2022/03/07 10:38:10;;;;;;;9.43;4.20;;;14.80;57.50;;;;;;5114650;28;20023;-83
2022/03/07 10:40:39;;;;;;;9.25;4.20;;;14.70;56.20;;;;;;5114117;28;20320;-83
2022/03/07 10:43:06;;;;;;;8.45;3.90;;;14.50;56.90;;;;;;5114210;28;20452;-83
2022/03/07 10:45:44;;;;;;;8.88;3.80;;;14.20;56.00;;;;;;5114497;28;20085;-83
2022/03/07 10:48:09;;;;;;;8.43;3.60;;;13.50;57.50;;;;;;5114463;28;20030;-83
2022/03/07 10:50:35;;;;;;;10.27;3.25;;;13.90;60.20;;;;;;5113683;28;20355;-83
2022/03/07 10:53:07;;;;;;;7.65;3.38;;;12.80;58.00;;;;;;5113913;28;20027;-82
2022/03/07 10:55:34;;;;;;;7.65;3.22;;;13.10;61.00;;;;;;5114117;28;20016;-82
2022/03/07 10:58:10;;;;;;;8.13;3.28;;;12.90;58.30;;;;;;5112913;28;20080;-82
2022/03/07 11:01:15;;;;;;;7.03;2.80;;;12.30;61.10;;;;;;5114303;28;20019;-82
2022/03/07 11:03:40;;;;;;;8.32;2.85;;;11.40;67.10;;;;;;5051315;28;20099;-82
2022/03/07 11:06:06;;;;;;;8.10;3.35;;;10.80;69.00;;;;;;5034549;28;20083;-82
2022/03/07 11:08:32;;;;;;;8.18;3.40;;;10.30;79.40;;;;;;5069116;28;20036;-83
2022/03/07 11:11:00;;;;;;;6.97;2.83;;;10.00;96.00;;;;;;5112756;28;20456;-83
2022/03/07 11:13:29;;;;;;;7.60;3.10;;;9.70;91.40;;;;;;5113884;28;20037;-81
2022/03/07 11:15:57;;;;;;;9.18;3.22;;;9.40;93.20;;;;;;5116807;28;20111;-80
2022/03/07 11:18:23;;;;;;;6.78;3.15;;;9.00;94.20;;;;;;5117997;28;20028;-80
2022/03/07 11:20:50;;;;;;;9.70;3.67;;;8.70;97.70;;;;;;5117210;28;20027;-81
2022/03/07 11:23:21;;;;;;;8.90;3.40;;;8.70;99.90;;;;;;5117205;28;20143;-83
2022/03/07 11:25:54;;;;;;;;;;;8.40;99.90;;;;;;5119854;28;20020;-81
2022/03/07 11:28:31;;;;;;;6.75;3.30;;;8.80;99.90;;;;;;5116703;28;19952;-80
2022/03/07 11:30:57;;;;;;;7.63;3.50;;;11.10;99.90;;;;;;5117838;28;20026;-83
2022/03/07 11:33:27;;;;;;;9.18;3.35;;;13.10;71.10;;;;;;5117871;28;20028;-83
2022/03/07 11:35:54;;;;;;;9.40;3.47;;;13.60;54.90;;;;;;5116491;28;20031;-82
2022/03/07 11:38:23;;;;;;;8.70;2.97;;;14.00;55.70;;;;;;5117579;28;20054;-82
2022/03/07 11:41:02;;;;;;;8.93;3.20;;;14.40;55.00;;;;;;5117587;28;20031;-82
2022/03/07 11:43:32;;;;;;;6.75;2.65;;;15.60;53.20;;;;;;5117461;28;20439;-85
2022/03/07 11:46:00;;;;;;;7.75;2.60;;;16.80;49.70;;;;;;5116774;28;20047;-85
2022/03/07 11:48:31;;;;;;;7.68;2.50;;;16.80;45.60;;;;;;5117461;28;20103;-83
2022/03/07 11:50:57;;;;;;;6.53;2.65;;;16.80;45.70;;;;;;5117620;28;20023;-84
2022/03/07 11:53:23;;;;;;;5.25;2.10;;;16.40;42.90;;;;;;5117308;28;20026;-82
2022/03/07 11:55:51;;;;;;;8.48;2.08;;;16.80;45.10;;;;;;5116276;28;20383;-83
2022/03/07 11:58:49;;;;;;;5.80;1.45;;;17.20;40.60;;;;;;5117554;28;20046;-83
2022/03/07 12:01:15;;;;;;;6.45;1.77;;;18.50;39.60;;;;;;5105319;28;20066;-83
2022/03/07 12:03:41;;;;;;;6.95;1.98;;;18.50;37.40;;;;;;5117854;28;20460;-84
2022/03/07 12:06:12;;;;;;;4.78;1.70;;;16.20;35.40;;;;;;5117327;28;20061;-82
2022/03/07 12:08:54;;;;;;;5.38;2.08;;;17.90;37.20;;;;;;5116076;28;20024;-82
2022/03/07 12:11:31;;;;;;;6.38;1.75;;;17.40;37.90;;;;;;5117483;28;20019;-84
2022/03/07 12:14:08;;;;;;;6.00;1.92;;;18.10;39.10;;;;;;5116719;28;20015;-80
2022/03/07 12:16:38;;;;;;;5.22;2.03;;;16.60;38.20;;;;;;5115969;28;20104;-83
2022/03/07 12:19:11;;;;;;;5.88;1.52;;;15.50;38.50;;;;;;5117148;27;20095;-83
2022/03/07 12:21:41;;;;;;;5.30;1.60;;;16.50;39.60;;;;;;5117067;28;20085;-83
2022/03/07 12:24:08;;;;;;;6.32;2.13;;;16.70;39.30;;;;;;5116886;28;20069;-82
2022/03/07 12:26:55;;;;;;;6.85;1.98;;;17.80;38.40;;;;;;5114753;28;20035;-82
2022/03/07 12:29:23;;;;;;;4.45;1.63;;;17.80;36.20;;;;;;5115321;28;20356;-82
2022/03/07 12:31:54;;;;;;;5.90;2.03;;;18.00;38.30;;;;;;5116818;28;20020;-82
2022/03/07 12:34:25;;;;;;;6.65;2.00;;;17.90;35.00;;;;;;5115526;28;20024;-81